Time;durP1;ratioP1;P1;durP2;ratioP2;P2;SDS_P1;SDS_P2;PMS_P1;PMS_P2;Temp;Humidity;BMP_temperature;BMP_pressure;BME280_temperature;BME280_humidity;BME280_pressure;Samples;Min_cycle;Max_cycle;Signal;HPM_P1;HPM_P2
2024/01/11 00:07:23;;;;;;;4.10;3.13;;;;;;;;;;20753581;28;20237;-85
2024/01/11 00:17:25;;;;;;;4.33;3.20;;;;;;;;;;20723138;28;20231;-86
2024/01/11 00:27:27;;;;;;;3.17;2.63;;;;;;;;;;20743438;28;20211;-86
2024/01/11 00:37:29;;;;;;;3.87;2.60;;;;;;;;;;20779434;28;20223;-82
2024/01/11 00:47:30;;;;;;;4.03;2.90;;;;;;;;;;20773864;28;20251;-85
2024/01/11 00:57:32;;;;;;;2.87;2.47;;;;;;;;;;20757538;28;20270;-85
2024/01/11 01:07:34;;;;;;;3.47;2.20;;;;;;;;;;20739297;28;20223;-84
2024/01/11 01:17:36;;;;;;;6.47;2.70;;;;;;;;;;20729346;28;20215;-85
2024/01/11 01:27:38;;;;;;;4.57;3.37;;;;;;;;;;20762388;28;20215;-85
2024/01/11 01:37:40;;;;;;;2.73;2.10;;;;;;;;;;20745551;28;20227;-85
2024/01/11 01:47:42;;;;;;;4.20;3.10;;;-3.40;99.90;;;;;;20715969;28;20247;-83
2024/01/11 01:57:54;;;;;;;3.43;2.37;;;;;;;;;;20751993;28;20570;-86
2024/01/11 02:07:56;;;;;;;5.77;2.90;;;;;;;;;;20731042;28;20245;-86
2024/01/11 02:17:58;;;;;;;4.57;3.27;;;;;;;;;;20772486;28;20230;-84
2024/01/11 02:28:00;;;;;;;4.27;3.37;;;;;;;;;;20727230;28;20219;-85
2024/01/11 02:38:02;;;;;;;3.60;2.40;;;;;;;;;;20740377;28;20227;-82
2024/01/11 02:48:04;;;;;;;6.77;3.70;;;;;;;;;;20724311;28;20281;-84
2024/01/11 02:58:05;;;;;;;2.50;2.27;;;;;;;;;;20741788;28;20265;-85
2024/01/11 03:08:07;;;;;;;3.43;2.33;;;;;;;;;;20749895;28;20920;-84
2024/01/11 03:28:50;;;;;;;3.37;2.33;;;;;;;;;;20732058;28;20798;-83
2024/01/11 03:38:52;;;;;;;4.37;2.60;;;;;;;;;;20751117;28;20219;-84
2024/01/11 03:48:53;;;;;;;6.10;3.23;;;;;;;;;;20772400;28;20273;-83
2024/01/11 03:58:55;;;;;;;4.67;3.27;;;;;;;;;;20758896;28;20755;-84
2024/01/11 04:08:57;;;;;;;1.93;1.67;;;;;;;;;;20763083;28;20210;-84
2024/01/11 04:19:00;;;;;;;3.40;2.40;;;;;;;;;;20723926;28;20277;-84
2024/01/11 04:29:01;;;;;;;4.77;2.97;;;;;;;;;;20753811;28;20539;-83
2024/01/11 04:39:03;;;;;;;3.40;2.47;;;;;;;;;;20771638;28;20304;-83
2024/01/11 04:49:05;;;;;;;3.10;2.60;;;;;;;;;;20731463;28;20273;-83
2024/01/11 04:59:07;;;;;;;2.73;2.37;;;;;;;;;;20753860;28;20692;-84
2024/01/11 05:09:09;;;;;;;2.50;2.03;;;;;;;;;;20757328;28;20684;-84
2024/01/11 05:19:11;;;;;;;3.60;2.50;;;;;;;;;;20759123;28;20222;-82
2024/01/11 05:29:13;;;;;;;3.63;2.93;;;;;;;;;;20772857;28;20250;-84
2024/01/11 05:39:14;;;;;;;5.20;4.57;;;;;;;;;;20726140;28;20226;-85
2024/01/11 05:49:16;;;;;;;2.30;1.70;;;;;;;;;;20721238;28;20250;-83
2024/01/11 05:59:18;;;;;;;2.37;1.87;;;;;;;;;;20744094;28;20246;-84
2024/01/11 06:09:20;;;;;;;2.97;2.00;;;;;;;;;;20770728;28;20215;-84
2024/01/11 06:19:22;;;;;;;3.87;2.87;;;-4.70;99.90;;;;;;20756916;28;20234;-83
2024/01/11 06:29:25;;;;;;;3.20;2.30;;;;;;;;;;20731037;28;20227;-83
2024/01/11 06:39:27;;;;;;;3.80;2.93;;;;;;;;;;20738332;28;20642;-82
2024/01/11 06:49:28;;;;;;;4.17;2.70;;;;;;;;;;20716719;28;20770;-85
2024/01/11 06:59:30;;;;;;;3.67;2.57;;;;;;;;;;20736854;28;20231;-82
2024/01/11 07:09:32;;;;;;;4.53;3.00;;;;;;;;;;20735899;28;20750;-84
2024/01/11 07:19:33;;;;;;;3.60;2.80;;;;;;;;;;20750635;28;20223;-82
2024/01/11 07:29:35;;;;;;;4.23;2.07;;;;;;;;;;20724090;28;20215;-83
2024/01/11 07:39:37;;;;;;;3.43;2.70;;;;;;;;;;20784789;28;20250;-84
2024/01/11 07:49:39;;;;;;;2.53;2.27;;;;;;;;;;20732204;28;20219;-83
2024/01/11 07:59:41;;;;;;;3.63;3.10;;;;;;;;;;20743441;28;20235;-82
2024/01/11 08:09:45;;;;;;;3.63;2.57;;;;;;;;;;20724085;28;20289;-85
2024/01/11 08:19:46;;;;;;;3.27;2.23;;;;;;;;;;20718979;28;20721;-85
2024/01/11 08:29:48;;;;;;;3.27;2.87;;;;;;;;;;20735318;28;20226;-85
2024/01/11 08:39:50;;;;;;;3.10;2.57;;;;;;;;;;20751247;28;20227;-84
2024/01/11 08:49:52;;;;;;;4.13;2.73;;;;;;;;;;20742568;28;20270;-84
2024/01/11 08:59:54;;;;;;;3.13;2.37;;;;;;;;;;20720030;28;20276;-84
2024/01/11 09:09:56;;;;;;;4.67;3.07;;;;;;;;;;20756345;28;20273;-85
2024/01/11 09:19:58;;;;;;;2.73;2.30;;;;;;;;;;20741464;28;20296;-84
2024/01/11 09:29:59;;;;;;;4.90;2.97;;;;;;;;;;20729151;28;20627;-85
2024/01/11 09:40:01;;;;;;;3.27;2.87;;;;;;;;;;20731648;28;20219;-85
2024/01/11 09:50:04;;;;;;;2.37;2.17;;;;;;;;;;20755693;28;20300;-84
2024/01/11 10:00:07;;;;;;;4.17;3.17;;;;;;;;;;20734234;28;20222;-83
2024/01/11 10:10:10;;;;;;;6.20;3.60;;;;;;;;;;20745202;28;20219;-85
2024/01/11 10:20:15;;;;;;;5.30;3.30;;;-2.20;99.90;;;;;;20788640;28;20235;-85
2024/01/11 10:30:17;;;;;;;4.27;2.47;;;;;;;;;;20784051;28;20766;-84
2024/01/11 10:40:23;;;;;;;4.30;3.90;;;;;;;;;;20744269;28;20248;-87
2024/01/11 10:50:26;;;;;;;8.47;5.40;;;;;;;;;;20843421;28;20230;-82
2024/01/11 11:00:31;;;;;;;5.67;4.73;;;-1.50;99.90;;;;;;20851320;28;20229;-84
2024/01/11 11:10:34;;;;;;;6.60;3.83;;;;;;;;;;20835555;28;20219;-84
2024/01/11 11:20:36;;;;;;;7.47;4.57;;;;;;;;;;20788105;28;20221;-83
2024/01/11 11:30:38;;;;;;;4.87;4.03;;;-1.60;99.90;;;;;;20816515;28;20703;-83
2024/01/11 11:40:42;;;;;;;6.40;4.33;;;;;;;;;;20819365;28;20218;-83
2024/01/11 11:50:44;;;;;;;5.33;4.27;;;;;;;;;;20847426;28;20680;-84
2024/01/11 12:00:47;;;;;;;4.33;3.47;;;;;;;;;;20825168;28;20667;-84
2024/01/11 12:10:49;;;;;;;5.80;4.00;;;;;;;;;;20803085;28;20233;-87
2024/01/11 12:20:53;;;;;;;6.17;4.90;;;;;;;;;;20859180;28;20209;-83
2024/01/11 12:30:54;;;;;;;8.77;5.30;;;;;;;;;;20855855;28;20757;-84
2024/01/11 12:40:56;;;;;;;6.37;3.67;;;;;;;;;;20815692;28;20222;-83
2024/01/11 12:50:58;;;;;;;6.57;5.30;;;-1.00;99.90;;;;;;20816147;28;20210;-84
2024/01/11 13:01:00;;;;;;;7.07;4.47;;;;;;;;;;20821093;28;20234;-85
2024/01/11 13:11:06;;;;;;;6.07;3.77;;;;;;;;;;20839456;28;20577;-83
2024/01/11 13:21:07;;;;;;;4.33;3.57;;;;;;;;;;20838801;28;20718;-84
2024/01/11 13:31:09;;;;;;;5.07;4.07;;;;;;;;;;20836239;28;20218;-83
2024/01/11 13:41:11;;;;;;;4.87;4.07;;;;;;;;;;20816065;28;20304;-83
2024/01/11 13:51:14;;;;;;;6.50;4.23;;;;;;;;;;20834380;28;20222;-82
2024/01/11 14:01:15;;;;;;;3.37;2.60;;;;;;;;;;20820462;28;20218;-82
2024/01/11 14:11:17;;;;;;;4.27;3.40;;;;;;;;;;20798158;28;20222;-80
2024/01/11 14:21:19;;;;;;;4.97;3.50;;;;;;;;;;20844409;28;20724;-83
2024/01/11 14:31:21;;;;;;;5.60;3.57;;;;;;;;;;20821633;28;20223;-82
2024/01/11 14:41:23;;;;;;;5.83;4.30;;;;;;;;;;20825415;28;20234;-81
2024/01/11 14:51:28;;;;;;;4.97;4.30;;;;;;;;;;20832405;28;20268;-81
2024/01/11 15:01:30;;;;;;;4.17;3.43;;;;;;;;;;20788538;28;20214;-80
2024/01/11 15:11:35;;;;;;;3.63;2.90;;;;;;;;;;20828854;28;20231;-83
2024/01/11 15:21:38;;;;;;;5.33;4.17;;;;;;;;;;20845105;28;20226;-82
2024/01/11 15:31:42;;;;;;;4.83;3.10;;;;;;;;;;20833172;28;20237;-83
2024/01/11 15:41:49;;;;;;;4.63;3.13;;;;;;;;;;20880962;28;20218;-83
2024/01/11 15:51:51;;;;;;;5.57;3.63;;;;;;;;;;20825913;28;20207;-82
2024/01/11 16:01:54;;;;;;;5.57;3.37;;;;;;;;;;20815399;28;20222;-83
2024/01/11 16:11:56;;;;;;;4.27;2.57;;;;;;;;;;20811227;28;20265;-81
2024/01/11 16:21:58;;;;;;;10.33;3.47;;;;;;;;;;20808912;28;20276;-83
2024/01/11 16:32:00;;;;;;;7.70;3.97;;;;;;;;;;20819011;28;20211;-82
2024/01/11 16:42:01;;;;;;;9.33;4.20;;;;;;;;;;20832422;28;20222;-84
2024/01/11 16:52:04;;;;;;;4.50;3.07;;;;;;;;;;20790965;28;20222;-84
2024/01/11 17:02:06;;;;;;;5.23;3.57;;;;;;;;;;20827011;28;20268;-84
2024/01/11 17:12:08;;;;;;;12.10;6.67;;;;;;;;;;20833134;28;20214;-86
2024/01/11 17:22:09;;;;;;;6.07;3.77;;;;;;;;;;20835822;28;20242;-85
2024/01/11 17:32:11;;;;;;;3.60;2.87;;;;;;;;;;20838377;28;20280;-83
2024/01/11 17:42:13;;;;;;;6.37;4.57;;;;;;;;;;20827628;28;20250;-84
2024/01/11 17:52:15;;;;;;;5.30;3.57;;;;;;;;;;20838639;28;20269;-81
2024/01/11 18:02:16;;;;;;;5.90;4.57;;;;;;;;;;20805040;28;20230;-84
2024/01/11 18:12:19;;;;;;;6.90;4.07;;;;;;;;;;20840873;28;20585;-83
2024/01/11 18:22:21;;;;;;;7.47;4.27;;;;;;;;;;20869807;28;20217;-81
2024/01/11 18:32:23;;;;;;;4.73;3.13;;;;;;;;;;20774570;28;20206;-86
2024/01/11 18:42:25;;;;;;;4.60;3.63;;;;;;;;;;20800746;28;20644;-82
2024/01/11 18:52:27;;;;;;;4.73;4.00;;;;;;;;;;20822330;28;20700;-83
2024/01/11 19:02:29;;;;;;;6.67;3.73;;;;;;;;;;20788949;28;21067;-82
2024/01/11 19:12:31;;;;;;;5.27;3.60;;;;;;;;;;20819395;28;20296;-81
2024/01/11 19:22:33;;;;;;;7.03;4.13;;;;;;;;;;20810015;28;20260;-83
2024/01/11 19:32:35;;;;;;;4.10;2.67;;;;;;;;;;20799465;28;20210;-84
2024/01/11 19:42:37;;;;;;;6.03;3.83;;;;;;;;;;20815237;28;20253;-84
2024/01/11 19:52:39;;;;;;;4.30;2.90;;;;;;;;;;20746578;28;20287;-83
2024/01/11 20:02:41;;;;;;;3.83;2.87;;;;;;;;;;20832697;28;20699;-83
2024/01/11 20:12:42;;;;;;;3.93;2.73;;;;;;;;;;20841935;28;20214;-83
2024/01/11 20:22:45;;;;;;;3.07;2.03;;;;;;;;;;20830811;28;20234;-82
2024/01/11 20:32:47;;;;;;;5.43;2.67;;;;;;;;;;20822211;28;20233;-82
2024/01/11 20:42:48;;;;;;;3.10;2.40;;;;;;;;;;20827048;28;20218;-84
2024/01/11 20:52:50;;;;;;;4.47;2.80;;;;;;;;;;20833621;28;20222;-83
2024/01/11 21:02:53;;;;;;;3.47;2.80;;;;;;;;;;20834094;28;20631;-82
2024/01/11 21:12:54;;;;;;;6.37;3.17;;;;;;;;;;20810084;28;20296;-84
2024/01/11 21:22:56;;;;;;;3.20;2.07;;;;;;;;;;20823371;28;20231;-82
2024/01/11 21:32:58;;;;;;;3.30;2.50;;;;;;;;;;20818910;28;20222;-82
2024/01/11 21:43:01;;;;;;;3.47;2.33;;;;;;;;;;20833164;28;20379;-83
2024/01/11 21:53:03;;;;;;;2.67;2.03;;;;;;;;;;20842186;28;20219;-83
2024/01/11 22:03:05;;;;;;;3.13;2.10;;;;;;;;;;20839120;28;20264;-83
2024/01/11 22:13:06;;;;;;;2.63;1.73;;;;;;;;;;20797726;28;20340;-83
2024/01/11 22:23:09;;;;;;;1.80;1.30;;;;;;;;;;20853101;28;20249;-86
2024/01/11 22:33:10;;;;;;;2.43;1.77;;;;;;;;;;20840599;28;20830;-85
2024/01/11 22:43:12;;;;;;;3.80;2.43;;;;;;;;;;20787023;28;20234;-83
2024/01/11 22:53:14;;;;;;;2.60;1.90;;;;;;;;;;20822738;28;20211;-85
2024/01/11 23:03:15;;;;;;;1.97;1.67;;;;;;;;;;20837453;28;20219;-87
2024/01/11 23:13:17;;;;;;;2.03;1.60;;;;;;;;;;20839791;28;20219;-86
2024/01/11 23:23:19;;;;;;;2.07;1.73;;;;;;;;;;20831925;28;20230;-86
2024/01/11 23:33:20;;;;;;;1.97;1.73;;;;;;;;;;20834798;28;20206;-82
2024/01/11 23:43:22;;;;;;;2.07;1.80;;;;;;;;;;20817621;28;20223;-83
2024/01/11 23:53:24;;;;;;;3.03;2.07;;;;;;;;;;20813022;28;20745;-82
